createdAt,value
2023-04-21T00:00:24.000Z,0
2023-04-21T00:01:40.438Z,0
2023-04-21T00:02:56.760Z,0
2023-04-21T00:04:13.035Z,0
2023-04-21T00:05:29.000Z,0
2023-04-21T00:06:45.636Z,0
2023-04-21T00:08:01.908Z,0
2023-04-21T00:09:18.236Z,0
2023-04-21T00:10:35.000Z,0
2023-04-21T00:11:49.822Z,0
2023-04-21T00:13:06.092Z,0
2023-04-21T00:14:22.409Z,0
2023-04-21T00:15:38.710Z,0
2023-04-21T00:16:55.005Z,0
2023-04-21T00:18:11.000Z,0
2023-04-21T00:19:27.589Z,0
2023-04-21T00:20:43.858Z,0
2023-04-21T00:22:00.162Z,0
2023-04-21T00:23:17.000Z,0
2023-04-21T00:24:32.763Z,0
2023-04-21T00:25:49.000Z,0
2023-04-21T00:27:05.320Z,0
2023-04-21T00:28:20.655Z,0
2023-04-21T00:29:36.947Z,0
2023-04-21T00:30:53.224Z,0
2023-04-21T00:32:09.548Z,0
2023-04-21T00:33:25.815Z,0
2023-04-21T00:34:42.099Z,0
2023-04-21T00:35:58.000Z,0
2023-04-21T00:37:15.000Z,0
2023-04-21T00:38:30.983Z,0
2023-04-21T00:39:47.275Z,0
2023-04-21T00:41:03.565Z,0
2023-04-21T00:42:19.879Z,0
2023-04-21T00:43:36.000Z,0
2023-04-21T00:44:51.495Z,0
2023-04-21T00:46:07.794Z,0
2023-04-21T00:47:24.050Z,0
2023-04-21T00:48:40.372Z,0
2023-04-21T00:49:56.647Z,0
2023-04-21T00:51:13.000Z,0
2023-04-21T00:52:29.235Z,0
2023-04-21T00:53:45.541Z,0
2023-04-21T00:55:01.817Z,0
2023-04-21T00:56:18.129Z,0
2023-04-21T00:57:34.402Z,0
2023-04-21T00:58:50.720Z,0
2023-04-21T01:00:06.992Z,0
2023-04-21T01:01:22.000Z,0
2023-04-21T01:02:38.605Z,0
2023-04-21T01:03:54.910Z,0
2023-04-21T01:05:11.178Z,0
2023-04-21T01:06:27.480Z,0
2023-04-21T01:07:43.790Z,0
2023-04-21T01:09:00.000Z,0
2023-04-21T01:10:16.354Z,0
2023-04-21T01:11:32.674Z,0
2023-04-21T01:12:48.965Z,0
2023-04-21T01:14:05.000Z,0
2023-04-21T01:15:21.527Z,0
2023-04-21T01:16:37.820Z,0
2023-04-21T01:17:53.130Z,0
2023-04-21T01:19:09.439Z,0
2023-04-21T01:20:25.732Z,0
2023-04-21T01:21:42.000Z,0
2023-04-21T01:22:58.313Z,0
2023-04-21T01:24:14.000Z,0
2023-04-21T01:25:30.889Z,0
2023-04-21T01:26:47.000Z,0
2023-04-21T01:28:03.499Z,0
2023-04-21T01:29:19.768Z,0
2023-04-21T01:30:36.000Z,0
2023-04-21T01:31:52.356Z,0
2023-04-21T01:33:08.000Z,0
2023-04-21T01:34:24.000Z,0
2023-04-21T01:35:40.258Z,0
2023-04-21T01:36:56.546Z,0
2023-04-21T01:38:12.853Z,0
2023-04-21T01:39:29.134Z,0
2023-04-21T01:40:44.474Z,0
2023-04-21T01:42:00.770Z,0
2023-04-21T01:43:17.049Z,0
2023-04-21T01:44:33.345Z,0
2023-04-21T01:45:49.659Z,0
2023-04-21T01:47:05.949Z,0
2023-04-21T01:48:22.235Z,0
2023-04-21T01:49:39.000Z,0
2023-04-21T01:50:54.823Z,0
2023-04-21T01:52:11.000Z,0
2023-04-21T01:53:27.413Z,0
2023-04-21T01:54:43.704Z,0
2023-04-21T01:55:59.973Z,0
2023-04-21T01:57:15.296Z,0
2023-04-21T01:58:31.601Z,0
2023-04-21T01:59:47.893Z,0
2023-04-21T02:01:04.185Z,0
2023-04-21T02:02:20.481Z,0
2023-04-21T02:03:36.756Z,0
2023-04-21T02:04:53.040Z,0
2023-04-21T02:06:09.340Z,0
2023-04-21T02:07:25.626Z,0
2023-04-21T02:08:41.924Z,0
2023-04-21T02:09:58.220Z,0
2023-04-21T02:11:14.511Z,0
2023-04-21T02:12:30.818Z,0
2023-04-21T02:13:46.124Z,0
2023-04-21T02:15:02.405Z,0
2023-04-21T02:16:18.713Z,0
2023-04-21T02:17:35.000Z,0
2023-04-21T02:18:51.294Z,0
2023-04-21T02:20:08.000Z,0
2023-04-21T02:21:23.000Z,0
2023-04-21T02:22:40.175Z,0
2023-04-21T02:23:57.000Z,0
2023-04-21T02:25:13.000Z,0
2023-04-21T02:26:29.055Z,0
2023-04-21T02:27:45.347Z,0
2023-04-21T02:29:01.000Z,0
2023-04-21T02:30:16.952Z,0
2023-04-21T02:31:33.245Z,0
2023-04-21T02:32:49.538Z,0
2023-04-21T02:34:05.830Z,0
2023-04-21T02:35:22.125Z,0
2023-04-21T02:36:38.410Z,0
2023-04-21T02:37:54.720Z,0
2023-04-21T02:39:11.003Z,0
2023-04-21T02:40:27.000Z,0
2023-04-21T02:41:43.599Z,0
2023-04-21T02:42:59.878Z,0
2023-04-21T02:44:16.173Z,0
2023-04-21T02:45:32.470Z,0
2023-04-21T02:46:47.777Z,0
2023-04-21T02:48:04.071Z,0
2023-04-21T02:49:20.373Z,0
2023-04-21T02:50:37.000Z,0
2023-04-21T02:51:52.956Z,0
2023-04-21T02:53:09.000Z,0
2023-04-21T02:54:25.535Z,0
2023-04-21T02:55:41.844Z,0
2023-04-21T02:56:58.125Z,0
2023-04-21T02:58:15.000Z,0
2023-04-21T02:59:30.720Z,0
2023-04-21T03:00:47.019Z,0
2023-04-21T03:02:03.300Z,0
2023-04-21T03:03:19.000Z,0
2023-04-21T03:04:34.911Z,0
2023-04-21T03:05:51.208Z,0
2023-04-21T03:07:07.000Z,0
2023-04-21T03:08:24.000Z,0
2023-04-21T03:09:40.000Z,0
2023-04-21T03:10:57.000Z,0
2023-04-21T03:12:12.668Z,0
2023-04-21T03:13:28.968Z,0
2023-04-21T03:14:45.254Z,0
2023-04-21T03:16:02.000Z,0
2023-04-21T03:17:17.841Z,0
2023-04-21T03:18:34.141Z,0
2023-04-21T03:19:49.445Z,0
2023-04-21T03:21:05.752Z,0
2023-04-21T03:22:22.031Z,0
2023-04-21T03:23:38.000Z,0
2023-04-21T03:24:54.624Z,0
2023-04-21T03:26:10.901Z,0
2023-04-21T03:27:27.000Z,0
2023-04-21T03:28:43.488Z,0
2023-04-21T03:29:59.797Z,0
2023-04-21T03:31:16.086Z,0
2023-04-21T03:32:32.318Z,0
2023-04-21T03:33:49.000Z,0
2023-04-21T03:35:04.929Z,0
2023-04-21T03:36:20.000Z,0
2023-04-21T03:37:36.415Z,0
2023-04-21T03:38:52.721Z,0
2023-04-21T03:40:08.997Z,0
2023-04-21T03:41:25.257Z,0
2023-04-21T03:42:41.497Z,0
2023-04-21T03:43:57.808Z,0
2023-04-21T03:45:14.000Z,0
2023-04-21T03:46:30.328Z,0
2023-04-21T03:47:46.580Z,0
2023-04-21T03:49:02.821Z,0
2023-04-21T03:50:19.058Z,0
2023-04-21T03:51:35.309Z,0
2023-04-21T03:52:51.539Z,0
2023-04-21T03:54:07.000Z,0
2023-04-21T03:55:23.021Z,0
2023-04-21T03:56:39.262Z,0
2023-04-21T03:57:55.504Z,0
2023-04-21T03:59:11.758Z,0
2023-04-21T04:00:27.978Z,0
2023-04-21T04:01:44.000Z,0
2023-04-21T04:03:00.470Z,0
2023-04-21T04:04:16.702Z,0
2023-04-21T04:05:32.946Z,0
2023-04-21T04:06:49.192Z,0
2023-04-21T04:08:05.445Z,0
2023-04-21T04:09:21.667Z,0
2023-04-21T04:10:36.930Z,0
2023-04-21T04:11:53.167Z,0
2023-04-21T04:13:09.403Z,0
2023-04-21T04:14:26.000Z,0
2023-04-21T04:15:41.880Z,0
2023-04-21T04:16:58.115Z,0
2023-04-21T04:18:14.350Z,0
2023-04-21T04:19:30.590Z,0
2023-04-21T04:20:46.828Z,0
2023-04-21T04:22:03.078Z,0
2023-04-21T04:23:19.325Z,0
2023-04-21T04:24:35.550Z,0
2023-04-21T04:25:52.000Z,5
2023-04-21T04:27:08.000Z,5
2023-04-21T04:28:23.280Z,5
2023-04-21T04:29:39.530Z,5
2023-04-21T04:30:55.765Z,5
2023-04-21T04:32:12.004Z,5
2023-04-21T04:33:28.262Z,5
2023-04-21T04:34:44.485Z,5
2023-04-21T04:36:00.733Z,5
2023-04-21T04:37:17.000Z,5
2023-04-21T04:38:33.198Z,5
2023-04-21T04:39:49.457Z,5
2023-04-21T04:41:05.693Z,5
2023-04-21T04:42:21.932Z,5
2023-04-21T04:43:38.169Z,5
2023-04-21T04:44:54.515Z,5
2023-04-21T04:47:26.995Z,5
2023-04-21T04:48:43.246Z,11
2023-04-21T04:49:59.492Z,11
2023-04-21T04:51:15.727Z,11
2023-04-21T04:52:32.000Z,11
2023-04-21T04:53:48.206Z,11
2023-04-21T04:55:04.453Z,11
2023-04-21T04:56:20.691Z,11
2023-04-21T04:57:37.000Z,11
2023-04-21T04:58:53.160Z,11
2023-04-21T05:00:09.401Z,11
2023-04-21T05:01:24.662Z,11
2023-04-21T05:02:40.895Z,11
2023-04-21T05:03:57.136Z,11
2023-04-21T05:05:14.000Z,11
2023-04-21T05:06:29.610Z,11
2023-04-21T05:07:45.855Z,11
2023-04-21T05:09:02.000Z,11
2023-04-21T05:10:19.000Z,11
2023-04-21T05:11:34.562Z,11
2023-04-21T05:12:50.825Z,11
2023-04-21T05:14:07.050Z,11
2023-04-21T05:15:23.291Z,11
2023-04-21T05:16:39.519Z,11
2023-04-21T05:17:55.000Z,16
2023-04-21T05:19:11.026Z,11
2023-04-21T05:20:27.262Z,16
2023-04-21T05:21:43.516Z,16
2023-04-21T05:22:59.749Z,16
2023-04-21T05:24:15.983Z,16
2023-04-21T05:25:32.000Z,16
2023-04-21T05:26:48.472Z,16
2023-04-21T05:28:05.000Z,16
2023-04-21T05:29:20.933Z,16
2023-04-21T05:30:37.181Z,16
2023-04-21T05:31:53.415Z,16
2023-04-21T05:33:09.655Z,16
2023-04-21T05:34:24.907Z,16
2023-04-21T05:35:41.145Z,16
2023-04-21T05:36:57.401Z,16
2023-04-21T05:38:13.641Z,16
2023-04-21T05:39:29.877Z,16
2023-04-21T05:40:46.108Z,16
2023-04-21T05:42:02.346Z,16
2023-04-21T05:43:18.589Z,16
2023-04-21T05:44:34.839Z,16
2023-04-21T05:45:51.074Z,22
2023-04-21T05:47:07.324Z,22
2023-04-21T05:48:23.564Z,22
2023-04-21T05:49:39.797Z,22
2023-04-21T05:50:55.049Z,22
2023-04-21T05:52:11.298Z,22
2023-04-21T05:53:28.000Z,22
2023-04-21T05:54:43.773Z,22
2023-04-21T05:55:59.036Z,22
2023-04-21T05:57:15.271Z,22
2023-04-21T05:58:31.502Z,22
2023-04-21T05:59:47.756Z,22
2023-04-21T06:01:04.000Z,22
2023-04-21T06:02:20.221Z,22
2023-04-21T06:03:36.000Z,22
2023-04-21T06:04:52.695Z,22
2023-04-21T06:06:08.961Z,22
2023-04-21T06:07:25.193Z,22
2023-04-21T06:08:41.423Z,22
2023-04-21T06:09:57.000Z,22
2023-04-21T06:11:13.906Z,22
2023-04-21T06:12:29.163Z,22
2023-04-21T06:13:45.414Z,22
2023-04-21T06:15:01.654Z,28
2023-04-21T06:16:17.885Z,28
2023-04-21T06:17:34.113Z,28
2023-04-21T06:18:50.351Z,28
2023-04-21T06:20:06.593Z,28
2023-04-21T06:21:22.849Z,28
2023-04-21T06:22:39.088Z,28
2023-04-21T06:23:55.307Z,28
2023-04-21T06:25:11.548Z,28
2023-04-21T06:26:27.800Z,28
2023-04-21T06:27:44.039Z,28
2023-04-21T06:28:59.292Z,28
2023-04-21T06:30:15.543Z,28
2023-04-21T06:31:31.767Z,28
2023-04-21T06:32:48.016Z,28
2023-04-21T06:34:04.243Z,28
2023-04-21T06:35:20.493Z,28
2023-04-21T06:36:36.727Z,28
2023-04-21T06:37:52.962Z,28
2023-04-21T06:39:09.217Z,28
2023-04-21T06:40:25.444Z,28
2023-04-21T06:41:41.693Z,28
2023-04-21T06:42:57.921Z,28
2023-04-21T06:44:14.174Z,28
2023-04-21T06:45:29.421Z,28
2023-04-21T06:46:45.668Z,28
2023-04-21T06:48:01.916Z,28
2023-04-21T06:49:18.153Z,28
2023-04-21T06:50:34.397Z,28
2023-04-21T06:51:50.633Z,28
2023-04-21T06:53:06.872Z,28
2023-04-21T06:54:23.107Z,28
2023-04-21T06:55:39.337Z,28
2023-04-21T06:56:55.576Z,33
2023-04-21T06:58:11.832Z,33
2023-04-21T06:59:28.062Z,33
2023-04-21T07:00:44.293Z,33
2023-04-21T07:01:59.560Z,33
2023-04-21T07:03:15.811Z,33
2023-04-21T07:04:32.037Z,33
2023-04-21T07:05:48.298Z,33
2023-04-21T07:07:04.513Z,33
2023-04-21T07:08:20.753Z,33
2023-04-21T07:09:37.004Z,33
2023-04-21T07:10:53.244Z,33
2023-04-21T07:12:09.470Z,33
2023-04-21T07:13:25.733Z,33
2023-04-21T07:14:41.958Z,33
2023-04-21T07:15:58.204Z,33
2023-04-21T07:17:14.450Z,33
2023-04-21T07:18:29.706Z,33
2023-04-21T07:19:45.937Z,33
2023-04-21T07:21:02.177Z,33
2023-04-21T07:22:18.421Z,33
2023-04-21T07:23:34.652Z,33
2023-04-21T07:24:50.893Z,33
2023-04-21T07:26:07.129Z,33
2023-04-21T07:27:23.368Z,33
2023-04-21T07:28:39.621Z,33
2023-04-21T07:29:55.864Z,33
2023-04-21T07:31:12.097Z,33
2023-04-21T07:32:28.356Z,33
2023-04-21T07:33:44.574Z,33
2023-04-21T07:34:59.840Z,33
2023-04-21T07:36:16.087Z,33
2023-04-21T07:37:32.320Z,33
2023-04-21T07:38:48.555Z,33
2023-04-21T07:40:04.792Z,33
2023-04-21T07:41:21.040Z,33
2023-04-21T07:42:37.292Z,33
2023-04-21T07:43:53.534Z,33
2023-04-21T07:45:09.759Z,33
2023-04-21T07:46:26.008Z,33
2023-04-21T07:47:42.000Z,33
2023-04-21T07:48:58.480Z,33
2023-04-21T07:50:14.717Z,33
2023-04-21T07:51:29.975Z,33
2023-04-21T07:52:46.228Z,33
2023-04-21T07:54:02.472Z,33
2023-04-21T07:55:18.691Z,33
2023-04-21T07:56:34.944Z,33
2023-04-21T07:57:51.182Z,33
2023-04-21T07:59:07.415Z,39
2023-04-21T08:00:23.661Z,39
2023-04-21T08:01:39.898Z,39
2023-04-21T08:02:56.148Z,39
2023-04-21T08:04:12.389Z,39
2023-04-21T08:05:28.625Z,39
2023-04-21T08:06:44.865Z,39
2023-04-21T08:08:00.117Z,39
2023-04-21T08:09:16.352Z,39
2023-04-21T08:10:32.593Z,39
2023-04-21T08:11:48.000Z,39
2023-04-21T08:13:05.068Z,39
2023-04-21T08:14:21.315Z,39
2023-04-21T08:15:37.000Z,39
2023-04-21T08:16:53.797Z,39
2023-04-21T08:18:10.033Z,39
2023-04-21T08:19:26.000Z,39
2023-04-21T08:20:42.514Z,39
2023-04-21T08:21:58.754Z,39
2023-04-21T08:23:14.995Z,39
2023-04-21T08:24:30.250Z,39
2023-04-21T08:25:46.000Z,39
2023-04-21T08:27:02.724Z,39
2023-04-21T08:28:18.974Z,39
2023-04-21T08:29:35.204Z,39
2023-04-21T08:30:51.446Z,39
2023-04-21T08:32:07.689Z,39
2023-04-21T08:33:23.940Z,39
2023-04-21T08:34:40.167Z,39
2023-04-21T08:35:56.406Z,39
2023-04-21T08:37:12.654Z,39
2023-04-21T08:38:28.898Z,39
2023-04-21T08:39:45.124Z,39
2023-04-21T08:41:00.387Z,39
2023-04-21T08:42:16.000Z,39
2023-04-21T08:43:32.857Z,39
2023-04-21T08:44:49.096Z,39
2023-04-21T08:46:06.000Z,39
2023-04-21T08:47:21.580Z,45
2023-04-21T08:48:37.827Z,45
2023-04-21T08:49:54.059Z,45
2023-04-21T08:51:11.000Z,45
2023-04-21T08:52:26.530Z,45
2023-04-21T08:53:42.772Z,45
2023-04-21T08:54:59.028Z,45
2023-04-21T08:56:15.245Z,45
2023-04-21T08:57:30.511Z,45
2023-04-21T08:58:46.743Z,45
2023-04-21T09:00:02.980Z,45
2023-04-21T09:01:19.000Z,45
2023-04-21T09:02:35.472Z,45
2023-04-21T09:03:51.697Z,45
2023-04-21T09:05:07.936Z,45
2023-04-21T09:06:24.192Z,45
2023-04-21T09:07:40.411Z,45
2023-04-21T09:08:56.667Z,45
2023-04-21T09:10:12.890Z,45
2023-04-21T09:11:29.000Z,45
2023-04-21T09:12:45.378Z,45
2023-04-21T09:14:00.633Z,45
2023-04-21T09:15:16.868Z,45
2023-04-21T09:16:33.107Z,45
2023-04-21T09:17:49.345Z,45
2023-04-21T09:19:05.587Z,45
2023-04-21T09:20:21.819Z,45
2023-04-21T09:21:38.055Z,45
2023-04-21T09:22:54.293Z,45
2023-04-21T09:24:10.536Z,45
2023-04-21T09:25:26.771Z,45
2023-04-21T09:26:43.008Z,45
2023-04-21T09:27:59.252Z,45
2023-04-21T09:29:15.487Z,45
2023-04-21T09:30:30.760Z,45
2023-04-21T09:31:46.993Z,45
2023-04-21T09:33:03.227Z,45
2023-04-21T09:34:19.464Z,45
2023-04-21T09:35:35.697Z,45
2023-04-21T09:36:51.950Z,45
2023-04-21T09:38:08.188Z,45
2023-04-21T09:39:24.421Z,45
2023-04-21T09:40:40.655Z,45
2023-04-21T09:41:56.907Z,45
2023-04-21T09:43:13.137Z,45
2023-04-21T09:44:29.372Z,45
2023-04-21T09:45:45.605Z,45
2023-04-21T09:47:00.859Z,45
2023-04-21T09:48:17.105Z,45
2023-04-21T09:49:33.339Z,50
2023-04-21T09:50:49.578Z,50
2023-04-21T09:52:05.824Z,50
2023-04-21T09:53:22.068Z,50
2023-04-21T09:54:38.295Z,50
2023-04-21T09:55:54.542Z,50
2023-04-21T09:57:10.774Z,50
2023-04-21T09:58:27.011Z,50
2023-04-21T09:59:43.248Z,50
2023-04-21T10:00:59.000Z,50
2023-04-21T10:02:15.740Z,50
2023-04-21T10:03:30.985Z,50
2023-04-21T10:04:47.228Z,50
2023-04-21T10:06:03.453Z,56
2023-04-21T10:07:19.710Z,56
2023-04-21T10:08:35.931Z,56
2023-04-21T10:09:52.176Z,61
2023-04-21T10:11:07.438Z,61
2023-04-21T10:12:23.676Z,67
2023-04-21T10:13:39.914Z,67
2023-04-21T10:14:56.145Z,73
2023-04-21T10:16:12.397Z,84
2023-04-21T10:17:28.637Z,106
2023-04-21T10:18:44.864Z,112
2023-04-21T10:20:01.100Z,123
2023-04-21T10:21:17.000Z,123
2023-04-21T10:22:33.588Z,129
2023-04-21T10:23:49.841Z,140
2023-04-21T10:25:06.062Z,135
2023-04-21T10:26:22.000Z,140
2023-04-21T10:27:37.561Z,140
2023-04-21T10:28:53.809Z,140
2023-04-21T10:30:10.041Z,140
2023-04-21T10:31:26.273Z,140
2023-04-21T10:32:42.514Z,146
2023-04-21T10:33:58.762Z,146
2023-04-21T10:35:14.998Z,151
2023-04-21T10:36:31.233Z,151
2023-04-21T10:37:47.484Z,151
2023-04-21T10:39:03.734Z,151
2023-04-21T10:40:19.959Z,157
2023-04-21T10:41:36.201Z,157
2023-04-21T10:42:52.434Z,157
2023-04-21T10:44:07.696Z,157
2023-04-21T10:45:23.926Z,157
2023-04-21T10:46:40.172Z,163
2023-04-21T10:47:56.000Z,163
2023-04-21T10:49:12.666Z,163
2023-04-21T10:50:28.893Z,163
2023-04-21T10:51:45.133Z,163
2023-04-21T10:53:01.384Z,163
2023-04-21T10:54:17.605Z,163
2023-04-21T10:55:33.868Z,168
2023-04-21T10:56:50.105Z,168
2023-04-21T10:58:06.322Z,174
2023-04-21T10:59:22.566Z,174
2023-04-21T11:00:37.820Z,168
2023-04-21T11:01:54.067Z,174
2023-04-21T11:03:10.302Z,174
2023-04-21T11:04:26.545Z,174
2023-04-21T11:05:42.789Z,185
2023-04-21T11:06:59.019Z,180
2023-04-21T11:08:15.281Z,180
2023-04-21T11:09:31.518Z,185
2023-04-21T11:10:47.756Z,185
2023-04-21T11:12:03.993Z,185
2023-04-21T11:13:20.231Z,185
2023-04-21T11:14:36.471Z,185
2023-04-21T11:15:52.700Z,191
2023-04-21T11:17:07.976Z,196
2023-04-21T11:18:24.206Z,196
2023-04-21T11:19:40.000Z,202
2023-04-21T11:20:56.687Z,202
2023-04-21T11:22:12.924Z,202
2023-04-21T11:23:29.156Z,202
2023-04-21T11:24:45.414Z,208
2023-04-21T11:26:01.000Z,208
2023-04-21T11:27:17.887Z,213
2023-04-21T11:28:34.140Z,219
2023-04-21T11:29:50.359Z,225
2023-04-21T11:31:06.623Z,225
2023-04-21T11:32:22.846Z,225
2023-04-21T11:33:38.106Z,236
2023-04-21T11:34:54.358Z,230
2023-04-21T11:36:10.590Z,230
2023-04-21T11:37:26.814Z,236
2023-04-21T11:38:43.065Z,236
2023-04-21T11:39:59.308Z,241
2023-04-21T11:41:15.539Z,241
2023-04-21T11:42:31.784Z,247
2023-04-21T11:43:48.036Z,247
2023-04-21T11:45:04.272Z,247
2023-04-21T11:46:20.523Z,247
2023-04-21T11:47:36.742Z,247
2023-04-21T11:48:52.992Z,253
2023-04-21T11:50:08.244Z,258
2023-04-21T11:51:24.483Z,258
2023-04-21T11:52:40.716Z,264
2023-04-21T11:53:56.961Z,270
2023-04-21T11:55:13.201Z,270
2023-04-21T11:56:29.430Z,90
2023-04-21T11:57:45.678Z,264
2023-04-21T11:59:01.935Z,270
2023-04-21T12:00:18.168Z,270
2023-04-21T12:01:34.404Z,270
2023-04-21T12:02:50.652Z,275
2023-04-21T12:04:06.888Z,78
2023-04-21T12:05:23.121Z,73
2023-04-21T12:06:39.477Z,78
2023-04-21T12:07:55.707Z,78
2023-04-21T12:09:11.962Z,73
2023-04-21T12:10:28.182Z,292
2023-04-21T12:11:44.449Z,298
2023-04-21T12:13:00.673Z,298
2023-04-21T12:14:16.901Z,298
2023-04-21T12:15:33.153Z,292
2023-04-21T12:16:49.380Z,303
2023-04-21T12:18:05.647Z,298
2023-04-21T12:19:21.878Z,298
2023-04-21T12:20:38.104Z,303
2023-04-21T12:21:54.357Z,303
2023-04-21T12:23:09.607Z,298
2023-04-21T12:24:25.836Z,303
2023-04-21T12:25:42.089Z,303
2023-04-21T12:26:58.332Z,303
2023-04-21T12:28:14.554Z,309
2023-04-21T12:29:30.796Z,309
2023-04-21T12:30:47.044Z,309
2023-04-21T12:32:03.288Z,258
2023-04-21T12:33:19.509Z,309
2023-04-21T12:34:35.764Z,309
2023-04-21T12:35:52.000Z,309
2023-04-21T12:37:08.243Z,309
2023-04-21T12:38:24.480Z,309
2023-04-21T12:39:39.729Z,315
2023-04-21T12:40:55.974Z,315
2023-04-21T12:42:12.211Z,320
2023-04-21T12:43:28.451Z,315
2023-04-21T12:44:44.696Z,315
2023-04-21T12:46:00.934Z,315
2023-04-21T12:47:17.165Z,112
2023-04-21T12:48:33.421Z,320
2023-04-21T12:49:49.638Z,326
2023-04-21T12:51:05.899Z,320
2023-04-21T12:52:22.128Z,331
2023-04-21T12:53:38.377Z,326
2023-04-21T12:54:54.597Z,331
2023-04-21T12:56:09.858Z,320
2023-04-21T12:57:26.100Z,292
2023-04-21T12:58:42.325Z,326
2023-04-21T12:59:58.566Z,326
2023-04-21T13:01:14.800Z,326
2023-04-21T13:02:31.043Z,326
2023-04-21T13:03:47.302Z,326
2023-04-21T13:05:03.534Z,320
2023-04-21T13:06:19.754Z,326
2023-04-21T13:07:35.990Z,326
2023-04-21T13:08:52.240Z,331
2023-04-21T13:10:08.498Z,326
2023-04-21T13:11:24.000Z,337
2023-04-21T13:12:39.955Z,129
2023-04-21T13:13:56.201Z,101
2023-04-21T13:15:12.456Z,101
2023-04-21T13:16:28.677Z,106
2023-04-21T13:17:44.929Z,258
2023-04-21T13:19:01.156Z,101
2023-04-21T13:20:18.000Z,90
2023-04-21T13:21:33.635Z,90
2023-04-21T13:22:49.000Z,78
2023-04-21T13:24:06.000Z,78
2023-04-21T13:25:22.344Z,174
2023-04-21T13:26:38.597Z,230
2023-04-21T13:27:54.825Z,270
2023-04-21T13:29:10.086Z,326
2023-04-21T13:30:27.000Z,331
2023-04-21T13:31:42.564Z,253
2023-04-21T13:32:58.799Z,337
2023-04-21T13:34:15.000Z,331
2023-04-21T13:35:31.273Z,320
2023-04-21T13:36:47.509Z,320
2023-04-21T13:38:04.000Z,326
2023-04-21T13:39:20.011Z,331
2023-04-21T13:40:36.000Z,331
2023-04-21T13:41:52.487Z,331
2023-04-21T13:43:09.000Z,331
2023-04-21T13:44:24.956Z,331
2023-04-21T13:45:40.197Z,331
2023-04-21T13:46:56.427Z,331
2023-04-21T13:48:12.665Z,326
2023-04-21T13:49:28.902Z,331
2023-04-21T13:50:45.146Z,337
2023-04-21T13:52:01.390Z,337
2023-04-21T13:53:17.619Z,331
2023-04-21T13:54:33.859Z,331
2023-04-21T13:55:50.098Z,337
2023-04-21T13:57:06.331Z,331
2023-04-21T13:58:22.576Z,337
2023-04-21T13:59:38.826Z,337
2023-04-21T14:00:55.065Z,343
2023-04-21T14:02:10.310Z,348
2023-04-21T14:03:26.551Z,348
2023-04-21T14:04:42.779Z,343
2023-04-21T14:05:59.026Z,343
2023-04-21T14:07:15.265Z,343
2023-04-21T14:08:31.511Z,343
2023-04-21T14:09:47.734Z,343
2023-04-21T14:11:03.981Z,343
2023-04-21T14:12:20.232Z,343
2023-04-21T14:13:36.000Z,337
2023-04-21T14:14:52.706Z,343
2023-04-21T14:16:08.949Z,343
2023-04-21T14:17:25.173Z,343
2023-04-21T14:18:40.428Z,343
2023-04-21T14:19:56.664Z,348
2023-04-21T14:21:12.904Z,348
2023-04-21T14:22:29.160Z,348
2023-04-21T14:23:45.385Z,348
2023-04-21T14:25:01.623Z,348
2023-04-21T14:26:16.913Z,343
2023-04-21T14:27:33.124Z,348
2023-04-21T14:28:49.357Z,348
2023-04-21T14:30:05.600Z,348
2023-04-21T14:31:21.856Z,348
2023-04-21T14:32:38.079Z,354
2023-04-21T14:33:55.000Z,354
2023-04-21T14:35:10.574Z,354
2023-04-21T14:36:27.000Z,354
2023-04-21T14:37:43.050Z,360
2023-04-21T14:38:59.287Z,360
2023-04-21T14:40:15.527Z,360
2023-04-21T14:41:31.753Z,365
2023-04-21T14:42:47.000Z,371
2023-04-21T14:44:03.246Z,365
2023-04-21T14:45:19.492Z,365
2023-04-21T14:46:36.000Z,365
2023-04-21T14:47:51.969Z,365
2023-04-21T14:49:09.000Z,376
2023-04-21T14:50:24.000Z,371
2023-04-21T14:51:40.689Z,382
2023-04-21T14:52:56.919Z,371
2023-04-21T14:54:13.187Z,371
2023-04-21T14:55:29.428Z,371
2023-04-21T14:56:45.634Z,365
2023-04-21T14:58:01.886Z,360
2023-04-21T14:59:17.136Z,365
2023-04-21T15:00:33.376Z,360
2023-04-21T15:01:50.000Z,354
2023-04-21T15:03:05.862Z,354
2023-04-21T15:04:22.000Z,348
2023-04-21T15:05:38.326Z,348
2023-04-21T15:06:54.587Z,343
2023-04-21T15:08:10.802Z,343
2023-04-21T15:09:27.063Z,343
2023-04-21T15:10:43.283Z,343
2023-04-21T15:12:00.000Z,343
2023-04-21T15:13:15.761Z,337
2023-04-21T15:14:32.003Z,343
2023-04-21T15:15:47.292Z,337
2023-04-21T15:17:03.504Z,331
2023-04-21T15:18:19.000Z,337
2023-04-21T15:19:36.000Z,331
2023-04-21T15:20:52.220Z,331
2023-04-21T15:22:08.450Z,326
2023-04-21T15:23:24.692Z,331
2023-04-21T15:24:40.930Z,326
2023-04-21T15:25:57.177Z,320
2023-04-21T15:27:13.404Z,320
2023-04-21T15:28:29.682Z,303
2023-04-21T15:29:45.890Z,315
2023-04-21T15:31:02.131Z,320
2023-04-21T15:32:17.403Z,315
2023-04-21T15:33:33.650Z,315
2023-04-21T15:34:49.859Z,320
2023-04-21T15:36:06.119Z,326
2023-04-21T15:37:23.000Z,326
2023-04-21T15:38:38.577Z,320
2023-04-21T15:39:54.812Z,320
2023-04-21T15:41:11.053Z,320
2023-04-21T15:42:27.319Z,326
2023-04-21T15:43:44.000Z,320
2023-04-21T15:44:59.805Z,320
2023-04-21T15:46:16.010Z,320
2023-04-21T15:47:32.259Z,320
2023-04-21T15:48:47.513Z,320
2023-04-21T15:50:03.753Z,320
2023-04-21T15:51:19.982Z,320
2023-04-21T15:52:36.248Z,320
2023-04-21T15:53:52.000Z,315
2023-04-21T15:55:08.700Z,315
2023-04-21T15:56:24.943Z,315
2023-04-21T15:57:41.195Z,309
2023-04-21T15:58:57.441Z,309
2023-04-21T16:00:13.699Z,303
2023-04-21T16:01:29.932Z,298
2023-04-21T16:02:47.000Z,298
2023-04-21T16:04:02.391Z,298
2023-04-21T16:05:17.636Z,303
2023-04-21T16:06:33.871Z,298
2023-04-21T16:07:50.120Z,298
2023-04-21T16:09:06.358Z,298
2023-04-21T16:10:22.613Z,292
2023-04-21T16:11:38.839Z,292
2023-04-21T16:12:55.096Z,286
2023-04-21T16:14:11.303Z,286
2023-04-21T16:15:27.570Z,286
2023-04-21T16:16:43.794Z,281
2023-04-21T16:18:00.021Z,281
2023-04-21T16:19:16.301Z,281
2023-04-21T16:20:32.500Z,275
2023-04-21T16:21:47.787Z,270
2023-04-21T16:23:04.000Z,270
2023-04-21T16:24:20.263Z,264
2023-04-21T16:25:36.495Z,253
2023-04-21T16:26:52.714Z,247
2023-04-21T16:28:08.949Z,247
2023-04-21T16:29:25.191Z,241
2023-04-21T16:30:42.000Z,241
2023-04-21T16:31:57.692Z,236
2023-04-21T16:33:13.918Z,230
2023-04-21T16:34:30.159Z,230
2023-04-21T16:35:46.380Z,225
2023-04-21T16:37:02.651Z,219
2023-04-21T16:38:18.000Z,219
2023-04-21T16:39:34.151Z,219
2023-04-21T16:40:50.359Z,213
2023-04-21T16:42:06.595Z,208
2023-04-21T16:43:22.841Z,196
2023-04-21T16:44:39.069Z,196
2023-04-21T16:45:55.322Z,196
2023-04-21T16:47:11.582Z,191
2023-04-21T16:48:27.824Z,196
2023-04-21T16:49:44.024Z,185
2023-04-21T16:51:01.000Z,180
2023-04-21T16:52:16.529Z,180
2023-04-21T16:53:33.000Z,180
2023-04-21T16:54:48.001Z,174
2023-04-21T16:56:04.236Z,174
2023-04-21T16:57:20.487Z,168
2023-04-21T16:58:36.713Z,168
2023-04-21T16:59:52.000Z,163
2023-04-21T17:01:10.000Z,163
2023-04-21T17:02:25.428Z,163
2023-04-21T17:03:41.673Z,157
2023-04-21T17:04:57.000Z,151
2023-04-21T17:06:14.143Z,146
2023-04-21T17:07:30.417Z,140
2023-04-21T17:08:47.000Z,135
2023-04-21T17:10:02.866Z,129
2023-04-21T17:11:18.117Z,123
2023-04-21T17:12:34.359Z,123
2023-04-21T17:13:51.000Z,118
2023-04-21T17:15:06.868Z,112
2023-04-21T17:16:23.105Z,106
2023-04-21T17:17:39.306Z,101
2023-04-21T17:18:55.559Z,95
2023-04-21T17:20:11.799Z,84
2023-04-21T17:21:29.000Z,84
2023-04-21T17:22:44.289Z,73
2023-04-21T17:24:00.509Z,61
2023-04-21T17:25:16.742Z,56
2023-04-21T17:26:34.000Z,56
2023-04-21T17:27:48.230Z,50
2023-04-21T17:29:05.000Z,45
2023-04-21T17:30:20.000Z,45
2023-04-21T17:31:36.956Z,39
2023-04-21T17:32:53.193Z,39
2023-04-21T17:34:10.000Z,39
2023-04-21T17:35:25.668Z,39
2023-04-21T17:36:41.907Z,39
2023-04-21T17:37:58.149Z,33
2023-04-21T17:39:14.375Z,28
2023-04-21T17:40:30.615Z,28
2023-04-21T17:41:47.000Z,22
2023-04-21T17:43:03.096Z,16
2023-04-21T17:44:18.000Z,16
2023-04-21T17:45:35.000Z,16
2023-04-21T17:46:51.000Z,11
2023-04-21T17:48:07.098Z,11
2023-04-21T17:49:23.302Z,11
2023-04-21T17:50:39.578Z,11
2023-04-21T17:51:55.000Z,5
2023-04-21T17:53:12.026Z,5
2023-04-21T17:54:28.263Z,5
2023-04-21T17:55:44.534Z,5
2023-04-21T17:57:00.744Z,5
2023-04-21T17:58:17.014Z,5
2023-04-21T17:59:33.217Z,5
2023-04-21T18:00:48.475Z,5
2023-04-21T18:02:04.720Z,5
2023-04-21T18:03:20.954Z,5